Time;durP1;ratioP1;P1;durP2;ratioP2;P2;SDS_P1;SDS_P2;PMS_P1;PMS_P2;Temp;Humidity;BMP_temperature;BMP_pressure;BME280_temperature;BME280_humidity;BME280_pressure;Samples;Min_cycle;Max_cycle;Signal;HPM_P1;HPM_P2
2024/01/23 00:02:07;;;;;;;2.45;2.22;;;18.90;56.90;;;;;;5051006;28;20182;-73
2024/01/23 00:04:33;;;;;;;3.40;2.53;;;18.80;56.90;;;;;;5061210;28;20217;-73
2024/01/23 00:06:59;;;;;;;2.78;2.30;;;18.80;56.80;;;;;;5071002;28;20211;-72
2024/01/23 00:09:26;;;;;;;2.97;2.40;;;18.80;56.90;;;;;;5040651;28;20194;-73
2024/01/23 00:11:52;;;;;;;2.53;1.90;;;18.90;57.00;;;;;;5059549;28;20273;-73
2024/01/23 00:14:18;;;;;;;3.97;2.28;;;18.90;56.90;;;;;;5062654;28;20280;-73
2024/01/23 00:16:44;;;;;;;2.03;1.83;;;18.80;56.90;;;;;;5060581;28;20222;-73
2024/01/23 00:19:09;;;;;;;2.55;1.98;;;18.90;57.00;;;;;;5038075;28;20377;-73
2024/01/23 00:21:35;;;;;;;2.92;2.17;;;18.90;57.00;;;;;;5060273;28;20186;-73
2024/01/23 00:24:01;;;;;;;2.20;2.00;;;18.90;57.00;;;;;;5060418;28;20227;-73
2024/01/23 00:26:27;;;;;;;3.28;2.22;;;18.90;56.90;;;;;;5078174;28;20213;-73
2024/01/23 00:28:52;;;;;;;2.40;1.95;;;18.80;56.90;;;;;;5041457;28;20192;-73
2024/01/23 00:31:18;;;;;;;2.05;1.85;;;18.80;56.90;;;;;;5079212;28;20185;-73
2024/01/23 00:33:44;;;;;;;2.13;1.85;;;18.90;56.90;;;;;;5039240;28;20191;-73
2024/01/23 00:36:10;;;;;;;2.60;2.13;;;18.90;56.90;;;;;;5045813;28;20261;-74
2024/01/23 00:38:35;;;;;;;2.97;2.00;;;18.80;56.90;;;;;;5076387;28;20218;-74
2024/01/23 00:41:01;;;;;;;2.95;2.10;;;18.90;57.00;;;;;;5069967;28;20206;-74
2024/01/23 00:43:27;;;;;;;2.13;1.92;;;18.80;56.80;;;;;;5060694;28;20189;-74
2024/01/23 00:45:53;;;;;;;2.38;1.95;;;18.80;56.90;;;;;;5060745;28;20194;-74
2024/01/23 00:48:19;;;;;;;2.13;1.92;;;18.80;56.90;;;;;;5066056;28;20286;-74
2024/01/23 00:50:44;;;;;;;2.70;2.28;;;18.80;56.90;;;;;;5060149;28;20244;-73
2024/01/23 00:53:10;;;;;;;2.40;2.20;;;18.80;56.90;;;;;;5049698;28;20243;-73
2024/01/23 00:55:36;;;;;;;2.67;2.15;;;18.80;56.90;;;;;;5042244;28;20186;-73
2024/01/23 00:58:02;;;;;;;2.45;2.25;;;18.90;56.90;;;;;;5077113;28;20203;-73
2024/01/23 01:00:29;;;;;;;2.35;1.98;;;18.80;56.90;;;;;;5042877;28;20186;-73
2024/01/23 01:02:55;;;;;;;2.28;1.85;;;18.80;56.90;;;;;;5037576;28;20278;-73
2024/01/23 01:05:20;;;;;;;2.03;1.83;;;18.90;56.90;;;;;;5060600;28;20304;-73
2024/01/23 01:07:46;;;;;;;2.55;2.35;;;18.80;56.90;;;;;;5041233;28;20191;-73
2024/01/23 01:10:12;;;;;;;2.15;1.88;;;18.80;56.90;;;;;;5062314;28;20786;-73
2024/01/23 01:12:38;;;;;;;2.20;1.80;;;18.80;56.90;;;;;;5040953;28;20193;-73
2024/01/23 01:15:04;;;;;;;2.10;1.90;;;18.80;56.90;;;;;;5040619;28;20178;-73
2024/01/23 01:17:30;;;;;;;2.05;1.73;;;18.80;56.80;;;;;;5058717;28;20245;-74
2024/01/23 01:19:56;;;;;;;1.80;1.70;;;18.80;56.90;;;;;;5059525;28;20272;-73
2024/01/23 01:22:22;;;;;;;1.95;1.65;;;18.80;56.90;;;;;;5042612;28;20181;-73
2024/01/23 01:24:47;;;;;;;2.50;1.90;;;18.80;56.90;;;;;;5044857;28;20226;-73
2024/01/23 01:27:13;;;;;;;1.75;1.60;;;18.80;56.80;;;;;;5052493;28;20203;-74
2024/01/23 01:29:39;;;;;;;2.33;1.95;;;18.80;56.80;;;;;;5042076;28;20195;-73
2024/01/23 01:32:05;;;;;;;2.38;2.00;;;18.80;56.90;;;;;;5058008;28;20261;-73
2024/01/23 01:34:31;;;;;;;2.17;1.50;;;18.80;56.80;;;;;;5046362;28;20200;-73
2024/01/23 01:36:57;;;;;;;3.05;2.00;;;18.80;56.90;;;;;;5051026;28;20198;-73
2024/01/23 01:39:23;;;;;;;2.42;1.80;;;18.80;56.90;;;;;;5042345;28;20197;-73
2024/01/23 01:41:55;;;;;;;2.13;1.55;;;18.80;56.90;;;;;;5048930;28;20194;-73
2024/01/23 01:44:21;;;;;;;2.03;1.50;;;18.80;56.90;;;;;;5042045;28;20209;-73
2024/01/23 01:46:51;;;;;;;1.65;1.42;;;18.80;56.90;;;;;;5055959;28;20209;-73
2024/01/23 01:49:18;;;;;;;1.92;1.73;;;18.80;56.90;;;;;;5058876;28;20182;-73
2024/01/23 01:51:46;;;;;;;2.13;1.63;;;18.80;56.90;;;;;;5044612;28;20186;-73
2024/01/23 01:54:12;;;;;;;1.80;1.70;;;18.80;56.90;;;;;;5047742;28;20201;-73
2024/01/23 01:56:40;;;;;;;2.17;1.70;;;18.80;56.90;;;;;;5055544;28;20214;-73
2024/01/23 01:59:07;;;;;;;1.70;1.60;;;18.80;56.90;;;;;;5056907;28;20247;-73
2024/01/23 02:01:33;;;;;;;2.03;1.77;;;18.80;56.90;;;;;;5045384;28;20196;-73
2024/01/23 02:03:59;;;;;;;2.25;1.70;;;18.80;56.90;;;;;;5047392;28;20234;-73
2024/01/23 02:06:26;;;;;;;1.52;1.42;;;18.80;56.90;;;;;;5080121;28;20229;-73
2024/01/23 02:08:54;;;;;;;1.50;1.40;;;18.80;56.90;;;;;;5044597;28;20614;-73
2024/01/23 02:11:20;;;;;;;1.60;1.50;;;18.80;56.90;;;;;;5041090;28;20185;-72
2024/01/23 02:13:46;;;;;;;3.15;1.40;;;18.80;56.90;;;;;;5054548;28;20190;-73
2024/01/23 02:16:12;;;;;;;2.25;1.85;;;18.80;56.80;;;;;;5039780;28;20194;-71
2024/01/23 02:18:38;;;;;;;2.10;1.90;;;18.80;56.80;;;;;;5059401;28;20606;-72
2024/01/23 02:21:04;;;;;;;2.45;1.60;;;18.80;56.80;;;;;;5051498;28;20186;-73
2024/01/23 02:23:33;;;;;;;2.22;1.60;;;18.80;56.80;;;;;;5055245;28;20190;-73
2024/01/23 02:25:58;;;;;;;1.73;1.50;;;18.80;56.90;;;;;;5055071;28;20210;-73
2024/01/23 02:28:24;;;;;;;1.85;1.35;;;18.80;56.90;;;;;;5039450;28;20209;-73
2024/01/23 02:30:50;;;;;;;2.38;1.58;;;18.80;56.90;;;;;;5055674;28;20186;-73
2024/01/23 02:33:16;;;;;;;1.67;1.58;;;18.80;56.90;;;;;;5037645;28;20199;-73
2024/01/23 02:35:42;;;;;;;1.30;1.20;;;18.80;56.90;;;;;;5037576;28;20182;-73
2024/01/23 02:38:08;;;;;;;2.55;1.50;;;18.80;56.90;;;;;;5038799;28;20324;-73
2024/01/23 02:40:35;;;;;;;1.90;1.38;;;18.80;56.90;;;;;;5054669;28;20174;-74
2024/01/23 02:43:01;;;;;;;2.08;1.88;;;18.80;56.90;;;;;;5051783;28;20215;-73
2024/01/23 02:45:27;;;;;;;2.65;1.70;;;18.80;56.90;;;;;;5038934;28;20205;-73
2024/01/23 02:47:53;;;;;;;1.40;1.20;;;18.80;56.80;;;;;;5050578;28;20202;-73
2024/01/23 02:50:19;;;;;;;1.52;1.40;;;18.80;56.90;;;;;;5054925;28;20189;-73
2024/01/23 02:52:45;;;;;;;1.55;1.40;;;18.80;56.90;;;;;;5053933;28;20186;-73
2024/01/23 02:55:10;;;;;;;1.98;1.77;;;18.80;56.90;;;;;;5036475;28;20206;-73
2024/01/23 02:57:37;;;;;;;1.83;1.52;;;18.80;56.90;;;;;;5053934;28;20212;-73
2024/01/23 03:00:04;;;;;;;1.73;1.48;;;18.80;56.90;;;;;;5037594;28;20179;-73
2024/01/23 03:02:30;;;;;;;2.08;1.55;;;18.80;56.80;;;;;;5067329;28;20192;-73
2024/01/23 03:04:56;;;;;;;3.17;1.73;;;18.80;56.90;;;;;;5053222;28;20268;-73
2024/01/23 03:07:23;;;;;;;1.40;1.30;;;18.80;56.90;;;;;;5038498;28;20202;-73
2024/01/23 03:09:49;;;;;;;1.85;1.40;;;18.80;56.80;;;;;;5066789;28;20180;-73
2024/01/23 03:12:21;;;;;;;2.40;1.70;;;18.80;56.80;;;;;;5059825;28;20189;-73
2024/01/23 03:14:49;;;;;;;1.65;1.30;;;18.80;56.80;;;;;;5030862;28;20673;-72
2024/01/23 03:17:16;;;;;;;1.40;1.30;;;18.80;56.80;;;;;;5051994;28;20228;-72
2024/01/23 03:19:44;;;;;;;2.17;1.30;;;18.80;56.80;;;;;;5052918;28;20209;-72
2024/01/23 03:22:10;;;;;;;1.85;1.67;;;18.80;56.80;;;;;;5043325;28;20287;-73
2024/01/23 03:24:38;;;;;;;2.08;1.50;;;18.80;56.80;;;;;;5038363;28;20225;-73
2024/01/23 03:27:07;;;;;;;1.50;1.40;;;18.80;56.80;;;;;;5039883;28;20571;-73
2024/01/23 03:29:43;;;;;;;1.50;1.40;;;18.80;56.90;;;;;;5040239;28;20623;-73
2024/01/23 03:32:10;;;;;;;1.58;1.30;;;18.80;56.80;;;;;;5063116;28;20194;-73
2024/01/23 03:34:37;;;;;;;1.50;1.40;;;18.80;56.90;;;;;;5039209;28;20186;-73
2024/01/23 03:37:04;;;;;;;1.55;1.38;;;18.80;56.80;;;;;;5042678;28;20198;-73
2024/01/23 03:39:31;;;;;;;1.90;1.58;;;18.80;56.80;;;;;;5047380;28;20185;-73
2024/01/23 03:41:57;;;;;;;1.90;1.23;;;18.80;56.80;;;;;;5055514;28;20190;-73
2024/01/23 03:44:27;;;;;;;1.60;1.50;;;18.80;56.80;;;;;;5069676;28;20215;-72
2024/01/23 03:46:53;;;;;;;1.55;1.38;;;18.80;56.80;;;;;;5038462;28;20581;-72
2024/01/23 03:49:19;;;;;;;1.60;1.50;;;18.80;56.80;;;;;;5053749;28;20269;-72
2024/01/23 03:51:45;;;;;;;2.50;1.50;;;18.80;56.80;;;;;;5051595;28;20179;-73
2024/01/23 03:54:11;;;;;;;1.77;1.38;;;18.80;56.80;;;;;;5043738;28;20278;-72
2024/01/23 03:56:37;;;;;;;2.03;1.48;;;18.80;56.80;;;;;;5043541;28;20202;-73
2024/01/23 03:59:03;;;;;;;1.65;1.00;;;18.80;56.80;;;;;;5052697;28;20572;-73
2024/01/23 04:01:29;;;;;;;2.97;1.77;;;18.80;56.80;;;;;;5049955;28;20182;-73
2024/01/23 04:03:54;;;;;;;1.27;1.05;;;18.80;56.80;;;;;;5048450;28;20214;-73
2024/01/23 04:06:20;;;;;;;1.55;1.25;;;18.80;56.80;;;;;;5050906;28;20261;-72
2024/01/23 04:08:46;;;;;;;1.42;1.25;;;18.80;56.80;;;;;;5047877;28;20191;-72
2024/01/23 04:11:12;;;;;;;1.40;1.30;;;18.80;56.80;;;;;;5064873;28;20217;-72
2024/01/23 04:13:38;;;;;;;2.03;1.40;;;18.80;56.80;;;;;;5049115;28;20179;-72
2024/01/23 04:16:06;;;;;;;1.65;1.30;;;18.80;56.80;;;;;;5048821;28;20665;-73
2024/01/23 04:18:32;;;;;;;1.42;1.20;;;18.80;56.80;;;;;;5042642;28;20183;-73
2024/01/23 04:20:58;;;;;;;1.67;1.33;;;18.80;56.80;;;;;;5046006;28;20659;-72
2024/01/23 04:23:25;;;;;;;1.55;1.10;;;18.80;56.80;;;;;;5051884;28;20190;-73
2024/01/23 04:25:51;;;;;;;1.40;1.20;;;18.80;56.80;;;;;;5068533;28;20209;-73
2024/01/23 04:28:16;;;;;;;1.58;1.17;;;18.80;56.80;;;;;;5049457;28;20215;-73
2024/01/23 04:30:42;;;;;;;1.83;1.55;;;18.80;56.80;;;;;;5036436;28;20202;-74
2024/01/23 04:33:08;;;;;;;1.50;1.20;;;18.80;56.70;;;;;;5034958;28;20221;-73
2024/01/23 04:35:34;;;;;;;1.42;1.20;;;18.80;56.80;;;;;;5052082;28;20197;-73
2024/01/23 04:38:01;;;;;;;1.58;1.48;;;18.80;56.80;;;;;;5034958;28;20256;-73
2024/01/23 04:40:26;;;;;;;1.98;1.30;;;18.80;56.80;;;;;;5051478;28;20190;-73
2024/01/23 04:42:52;;;;;;;1.65;1.25;;;18.80;57.40;;;;;;5051659;28;20193;-73
2024/01/23 04:45:18;;;;;;;2.38;1.30;;;18.80;57.40;;;;;;5049417;28;20218;-73
2024/01/23 04:47:44;;;;;;;1.63;1.38;;;18.80;56.80;;;;;;5044223;28;20203;-73
2024/01/23 04:50:10;;;;;;;1.33;1.10;;;18.80;56.80;;;;;;5051648;28;20186;-73
2024/01/23 04:52:35;;;;;;;1.92;1.10;;;18.80;56.80;;;;;;5043839;28;20187;-73
2024/01/23 04:55:02;;;;;;;1.52;1.30;;;18.80;56.80;;;;;;5041954;28;20190;-73
2024/01/23 04:57:31;;;;;;;1.77;1.27;;;18.80;56.80;;;;;;5051138;28;20206;-73
2024/01/23 04:59:58;;;;;;;2.03;1.33;;;18.80;56.80;;;;;;5051128;28;20256;-73
2024/01/23 05:02:24;;;;;;;1.20;1.10;;;18.80;56.80;;;;;;5050840;28;20323;-73
2024/01/23 05:04:50;;;;;;;1.40;1.27;;;18.80;56.80;;;;;;5051014;28;20301;-73
2024/01/23 05:07:15;;;;;;;2.15;1.35;;;18.80;56.80;;;;;;5034476;28;20215;-73
2024/01/23 05:09:41;;;;;;;1.52;1.20;;;18.80;56.80;;;;;;5031266;28;20238;-73
2024/01/23 05:12:07;;;;;;;1.30;1.20;;;18.80;56.80;;;;;;5047034;28;20175;-73
2024/01/23 05:14:33;;;;;;;2.00;1.20;;;18.80;56.80;;;;;;5050342;28;20194;-73
2024/01/23 05:16:59;;;;;;;1.95;1.38;;;18.80;56.80;;;;;;5056198;28;20214;-73
2024/01/23 05:19:24;;;;;;;1.35;1.25;;;18.80;56.80;;;;;;5067484;28;20193;-73
2024/01/23 05:21:50;;;;;;;2.83;1.42;;;18.80;56.80;;;;;;5047295;28;20194;-74
2024/01/23 05:24:17;;;;;;;2.25;1.15;;;18.80;56.80;;;;;;5037463;28;20210;-74
2024/01/23 05:26:43;;;;;;;1.38;1.27;;;18.80;56.80;;;;;;5042067;28;20198;-74
2024/01/23 05:29:09;;;;;;;1.63;1.30;;;18.70;56.80;;;;;;5033905;28;20352;-74
2024/01/23 05:31:34;;;;;;;1.60;1.17;;;18.80;56.90;;;;;;5033879;28;20193;-74
2024/01/23 05:34:00;;;;;;;1.48;1.15;;;18.80;56.80;;;;;;5050514;28;20217;-73
2024/01/23 05:36:26;;;;;;;1.55;1.15;;;18.80;56.80;;;;;;5067361;28;20221;-74
2024/01/23 05:38:51;;;;;;;2.65;1.30;;;18.80;56.80;;;;;;5030764;28;20198;-73
2024/01/23 05:41:17;;;;;;;1.73;1.35;;;18.70;56.70;;;;;;5047364;28;20662;-74
2024/01/23 05:43:43;;;;;;;2.00;1.20;;;18.80;56.80;;;;;;5063735;28;20265;-73
2024/01/23 05:46:09;;;;;;;1.40;1.30;;;18.80;56.80;;;;;;5070963;28;20181;-74
2024/01/23 05:48:35;;;;;;;1.85;1.10;;;18.80;56.80;;;;;;5052936;28;20191;-73
2024/01/23 05:51:00;;;;;;;2.20;1.27;;;18.80;56.80;;;;;;5053724;28;20185;-74
2024/01/23 05:53:26;;;;;;;1.75;1.10;;;18.80;56.80;;;;;;5069951;28;20209;-74
2024/01/23 05:55:53;;;;;;;2.53;1.30;;;18.80;56.80;;;;;;5053297;28;20221;-74
2024/01/23 05:58:18;;;;;;;1.50;1.40;;;18.80;56.80;;;;;;5052940;28;20206;-74
2024/01/23 06:00:44;;;;;;;2.17;1.48;;;18.80;56.80;;;;;;5052945;28;20189;-75
2024/01/23 06:03:10;;;;;;;1.77;1.20;;;18.80;56.80;;;;;;5053175;28;20675;-75
2024/01/23 06:05:36;;;;;;;1.30;1.02;;;18.80;56.80;;;;;;5069739;28;20214;-75
2024/01/23 06:08:03;;;;;;;1.15;1.05;;;18.70;56.80;;;;;;5052065;28;20206;-75
2024/01/23 06:10:28;;;;;;;1.52;1.08;;;18.70;56.70;;;;;;5069429;28;20190;-75
2024/01/23 06:12:54;;;;;;;1.42;1.00;;;18.70;56.70;;;;;;5070958;28;20185;-75
2024/01/23 06:15:20;;;;;;;1.48;0.95;;;18.70;56.70;;;;;;5071155;28;20217;-75
2024/01/23 06:17:46;;;;;;;1.45;1.20;;;18.70;56.70;;;;;;5053499;28;20219;-74
2024/01/23 06:20:12;;;;;;;1.20;1.10;;;18.70;56.70;;;;;;5069208;28;20200;-74
2024/01/23 06:22:40;;;;;;;1.58;0.90;;;18.70;56.70;;;;;;5062112;28;20229;-74
2024/01/23 06:25:16;;;;;;;1.30;1.05;;;18.70;56.70;;;;;;5047527;28;20304;-75
2024/01/23 06:27:43;;;;;;;1.13;1.00;;;18.70;56.70;;;;;;5052501;28;20213;-75
2024/01/23 06:30:11;;;;;;;1.48;1.20;;;18.70;56.60;;;;;;5052468;28;20190;-75
2024/01/23 06:32:41;;;;;;;1.27;1.02;;;18.70;56.60;;;;;;5051050;28;20182;-76
2024/01/23 06:35:09;;;;;;;0.80;0.80;;;18.70;56.70;;;;;;5052262;28;20181;-76
2024/01/23 06:37:35;;;;;;;1.17;1.02;;;18.70;56.60;;;;;;5042560;28;20213;-75
2024/01/23 06:40:02;;;;;;;1.73;1.10;;;18.70;56.60;;;;;;5051873;28;20269;-75
2024/01/23 06:42:28;;;;;;;1.42;1.00;;;18.70;56.60;;;;;;5050394;28;20918;-76
2024/01/23 06:44:53;;;;;;;1.13;1.00;;;18.70;56.50;;;;;;5051279;28;20209;-75
2024/01/23 06:47:19;;;;;;;1.27;0.98;;;18.60;56.40;;;;;;5067433;28;20205;-75
2024/01/23 06:49:46;;;;;;;1.45;1.00;;;18.60;56.40;;;;;;5068398;28;20190;-75
2024/01/23 06:52:11;;;;;;;1.23;1.00;;;18.70;56.50;;;;;;5052213;28;20181;-75
2024/01/23 06:54:37;;;;;;;1.38;1.00;;;18.60;56.40;;;;;;5050071;28;20190;-75
2024/01/23 06:57:03;;;;;;;1.08;0.75;;;18.60;56.40;;;;;;5067901;28;20699;-75
2024/01/23 06:59:29;;;;;;;1.23;1.08;;;18.60;57.00;;;;;;5069781;28;20315;-75
2024/01/23 07:01:55;;;;;;;1.88;1.20;;;18.60;56.40;;;;;;5070420;28;20194;-75
2024/01/23 07:04:21;;;;;;;1.15;1.00;;;18.70;56.50;;;;;;5054595;28;20205;-75
2024/01/23 07:06:46;;;;;;;1.67;1.00;;;18.60;56.40;;;;;;5049141;28;20217;-75
2024/01/23 07:09:13;;;;;;;0.75;0.75;;;18.60;56.40;;;;;;5072724;28;20208;-75
2024/01/23 07:11:40;;;;;;;1.33;1.05;;;18.60;56.40;;;;;;5054415;28;20193;-75
2024/01/23 07:14:07;;;;;;;1.67;1.10;;;18.60;56.40;;;;;;5060404;28;20197;-76
2024/01/23 07:16:33;;;;;;;1.42;0.90;;;18.70;56.40;;;;;;5070686;28;20323;-76
2024/01/23 07:18:58;;;;;;;2.20;1.10;;;18.70;56.50;;;;;;5066138;28;20817;-75
2024/01/23 07:21:24;;;;;;;1.25;1.00;;;18.60;56.40;;;;;;5051958;28;20195;-76
2024/01/23 07:23:50;;;;;;;0.82;0.82;;;18.60;56.40;;;;;;5053773;28;20239;-75
2024/01/23 07:26:17;;;;;;;1.00;0.90;;;18.60;56.40;;;;;;5054055;28;20220;-75
2024/01/23 07:28:43;;;;;;;1.10;1.00;;;18.60;56.40;;;;;;5054335;28;20637;-75
2024/01/23 07:31:11;;;;;;;1.08;0.98;;;18.60;56.40;;;;;;5067638;28;20182;-75
2024/01/23 07:33:37;;;;;;;1.77;1.00;;;18.60;56.30;;;;;;5069077;28;20207;-75
2024/01/23 07:36:03;;;;;;;1.25;0.90;;;18.70;56.40;;;;;;5070169;28;20243;-75
2024/01/23 07:38:29;;;;;;;0.80;0.80;;;18.70;56.50;;;;;;5070154;28;20194;-75
2024/01/23 07:40:55;;;;;;;1.20;1.00;;;18.70;56.40;;;;;;5088781;28;20197;-76
2024/01/23 07:43:27;;;;;;;1.15;0.90;;;18.70;56.40;;;;;;5069109;28;20184;-75
2024/01/23 07:45:53;;;;;;;1.50;1.30;;;18.70;56.40;;;;;;5046590;28;20300;-75
2024/01/23 07:48:20;;;;;;;0.82;0.82;;;18.70;56.40;;;;;;5069002;28;20285;-75
2024/01/23 07:50:46;;;;;;;0.95;0.90;;;18.70;56.30;;;;;;5052683;28;20183;-75
2024/01/23 07:53:12;;;;;;;1.98;1.05;;;18.70;56.40;;;;;;5070851;28;20236;-75
2024/01/23 07:55:38;;;;;;;1.27;0.95;;;18.70;56.30;;;;;;5068403;28;20193;-76
2024/01/23 07:58:03;;;;;;;0.82;0.82;;;18.60;56.30;;;;;;5069434;28;20201;-76
2024/01/23 08:00:29;;;;;;;1.27;1.02;;;18.70;56.40;;;;;;5050566;28;20200;-75
2024/01/23 08:02:56;;;;;;;0.90;0.90;;;18.70;56.40;;;;;;5070448;28;20205;-75
2024/01/23 08:05:22;;;;;;;1.20;0.90;;;18.70;56.40;;;;;;5069644;28;20236;-75
2024/01/23 08:07:48;;;;;;;1.33;1.00;;;18.70;56.40;;;;;;5055342;28;20218;-75
2024/01/23 08:10:15;;;;;;;1.00;0.85;;;18.70;56.40;;;;;;5050991;28;20667;-75
2024/01/23 08:12:40;;;;;;;1.50;1.13;;;18.70;56.40;;;;;;5065252;28;20191;-75
2024/01/23 08:15:07;;;;;;;1.20;1.10;;;18.60;56.40;;;;;;5085447;28;20267;-75
2024/01/23 08:17:33;;;;;;;1.15;1.05;;;18.60;56.40;;;;;;5051650;28;20229;-75
2024/01/23 08:19:59;;;;;;;1.15;1.00;;;18.70;56.40;;;;;;5051918;28;20189;-75
2024/01/23 08:22:25;;;;;;;1.48;1.20;;;18.60;56.30;;;;;;5054768;28;20220;-75
2024/01/23 08:24:51;;;;;;;0.98;0.90;;;18.60;56.40;;;;;;5071272;28;20217;-75
2024/01/23 08:27:17;;;;;;;0.93;0.90;;;18.70;56.50;;;;;;5067999;28;20213;-75
2024/01/23 08:29:44;;;;;;;1.27;1.10;;;18.70;56.40;;;;;;5048815;28;20191;-75
2024/01/23 08:32:10;;;;;;;1.13;1.08;;;18.70;56.40;;;;;;5086842;28;20212;-75
2024/01/23 08:34:36;;;;;;;1.10;1.00;;;18.70;56.40;;;;;;5048283;28;20717;-75
2024/01/23 08:37:02;;;;;;;1.10;0.70;;;18.60;56.30;;;;;;5084212;28;20591;-75
2024/01/23 08:39:28;;;;;;;1.13;1.00;;;18.70;56.40;;;;;;5066340;28;20197;-75
2024/01/23 08:41:53;;;;;;;1.50;0.98;;;18.70;56.40;;;;;;5050325;28;20201;-75
2024/01/23 08:44:21;;;;;;;0.85;0.80;;;18.70;56.40;;;;;;5066647;28;20262;-75
2024/01/23 08:46:48;;;;;;;1.02;0.88;;;18.70;56.40;;;;;;5064572;28;20277;-75
2024/01/23 08:49:15;;;;;;;1.42;1.00;;;18.70;56.40;;;;;;5053691;28;20193;-75
2024/01/23 08:51:41;;;;;;;0.70;0.70;;;18.70;56.40;;;;;;5064523;28;20566;-75
2024/01/23 08:54:07;;;;;;;1.00;0.80;;;18.70;56.40;;;;;;5066596;28;20260;-75
2024/01/23 08:56:34;;;;;;;0.88;0.85;;;18.60;56.40;;;;;;5044263;28;20286;-75
2024/01/23 08:58:59;;;;;;;0.80;0.80;;;18.70;56.40;;;;;;5062691;28;20262;-76
2024/01/23 09:01:25;;;;;;;2.00;1.00;;;18.70;56.50;;;;;;5068364;28;20281;-76
2024/01/23 09:03:51;;;;;;;0.85;0.80;;;18.70;56.40;;;;;;5064473;28;20190;-76
2024/01/23 09:06:17;;;;;;;1.10;1.00;;;18.70;56.40;;;;;;5065823;28;20272;-76
2024/01/23 09:08:43;;;;;;;0.82;0.82;;;18.70;56.50;;;;;;5082265;28;20190;-76
2024/01/23 09:11:09;;;;;;;0.90;0.90;;;18.70;56.40;;;;;;5065400;28;20263;-76
2024/01/23 09:13:34;;;;;;;0.93;0.93;;;18.70;56.40;;;;;;5045101;28;20187;-76
2024/01/23 09:16:01;;;;;;;1.10;0.75;;;18.70;56.40;;;;;;5037542;28;20178;-75
2024/01/23 09:18:28;;;;;;;1.35;0.80;;;18.70;56.40;;;;;;5068104;28;20181;-76
2024/01/23 09:20:56;;;;;;;1.00;0.90;;;18.70;56.40;;;;;;5044505;28;20179;-76
2024/01/23 09:23:24;;;;;;;1.23;1.02;;;18.70;56.30;;;;;;5053211;28;20241;-76
2024/01/23 09:25:52;;;;;;;1.08;0.98;;;18.70;56.30;;;;;;5063855;28;20254;-76
2024/01/23 09:28:18;;;;;;;1.20;0.88;;;18.70;56.30;;;;;;5064362;28;20209;-75
2024/01/23 09:30:43;;;;;;;1.23;0.77;;;18.70;56.30;;;;;;5051630;28;20213;-76
2024/01/23 09:33:09;;;;;;;1.80;0.95;;;18.80;56.30;;;;;;5061513;28;20194;-76
2024/01/23 09:35:36;;;;;;;0.90;0.90;;;18.80;56.30;;;;;;5064669;28;20218;-75
2024/01/23 09:38:03;;;;;;;1.20;0.90;;;18.80;56.30;;;;;;5064256;28;20201;-75
2024/01/23 09:40:29;;;;;;;1.20;0.80;;;18.80;56.30;;;;;;5079174;28;20665;-75
2024/01/23 09:42:57;;;;;;;1.75;0.90;;;18.80;56.30;;;;;;5063457;28;20191;-76
2024/01/23 09:45:29;;;;;;;1.23;0.98;;;18.80;56.40;;;;;;5046031;28;20278;-76
2024/01/23 09:47:56;;;;;;;1.10;1.00;;;18.80;56.30;;;;;;5057303;28;20215;-75
2024/01/23 09:50:26;;;;;;;1.95;1.13;;;18.80;56.30;;;;;;5046187;28;20190;-76
2024/01/23 09:52:52;;;;;;;1.67;1.15;;;18.80;56.40;;;;;;5077203;28;20197;-76
2024/01/23 09:55:18;;;;;;;1.73;1.00;;;18.80;56.40;;;;;;5046605;28;20220;-76
2024/01/23 09:57:45;;;;;;;1.73;1.05;;;18.80;56.30;;;;;;5041494;28;20222;-76
2024/01/23 10:00:12;;;;;;;1.95;0.98;;;18.80;56.30;;;;;;5063348;28;20189;-76
2024/01/23 10:02:42;;;;;;;1.65;1.17;;;18.80;56.30;;;;;;5056537;28;20190;-76
2024/01/23 10:05:16;;;;;;;1.00;0.90;;;18.80;56.40;;;;;;5062923;28;20710;-76
2024/01/23 10:07:42;;;;;;;1.60;1.30;;;18.80;56.30;;;;;;5059999;28;20230;-76
2024/01/23 10:10:15;;;;;;;1.63;0.98;;;18.80;56.30;;;;;;5046517;28;20190;-76
2024/01/23 10:12:50;;;;;;;1.00;0.90;;;18.90;56.30;;;;;;5039469;28;20663;-76
2024/01/23 10:15:18;;;;;;;1.20;0.95;;;18.90;56.30;;;;;;5079803;28;20203;-76
2024/01/23 10:17:45;;;;;;;1.13;0.80;;;18.90;56.40;;;;;;5067144;28;20250;-76
2024/01/23 10:20:12;;;;;;;1.15;0.80;;;18.90;56.40;;;;;;5064531;28;20205;-76
2024/01/23 10:22:38;;;;;;;1.80;1.10;;;18.90;56.40;;;;;;5076441;28;20190;-76
2024/01/23 10:25:10;;;;;;;1.80;1.10;;;18.90;56.30;;;;;;5044630;28;20202;-76
2024/01/23 10:27:36;;;;;;;2.50;1.00;;;18.90;56.40;;;;;;5059602;28;20352;-75
2024/01/23 10:30:03;;;;;;;1.55;1.20;;;18.90;56.30;;;;;;5052620;28;20197;-76
2024/01/23 10:32:32;;;;;;;0.82;0.75;;;18.90;56.40;;;;;;5043275;28;20242;-76
2024/01/23 10:34:58;;;;;;;1.85;0.95;;;18.90;56.40;;;;;;5059007;28;20268;-76
2024/01/23 10:37:24;;;;;;;1.15;1.00;;;18.90;56.40;;;;;;5044043;28;20347;-76
2024/01/23 10:39:51;;;;;;;2.22;1.10;;;18.90;56.40;;;;;;5045257;28;20187;-76
2024/01/23 10:42:19;;;;;;;1.15;0.88;;;18.90;56.40;;;;;;5062823;28;20185;-76
2024/01/23 10:44:48;;;;;;;1.50;1.10;;;18.90;56.40;;;;;;5038298;28;20214;-76
2024/01/23 10:47:15;;;;;;;1.42;1.15;;;18.90;56.40;;;;;;5061625;28;20213;-76
2024/01/23 10:49:45;;;;;;;1.38;0.93;;;18.90;56.40;;;;;;5046212;28;20678;-76
2024/01/23 10:52:18;;;;;;;1.58;1.08;;;18.90;56.40;;;;;;5040359;28;20217;-76
2024/01/23 10:54:53;;;;;;;1.60;1.00;;;18.90;56.40;;;;;;5042245;28;20182;-76
2024/01/23 10:57:24;;;;;;;1.05;0.95;;;18.90;56.40;;;;;;5052162;28;20749;-75
2024/01/23 10:59:51;;;;;;;1.30;1.20;;;18.90;56.40;;;;;;5045982;28;20221;-76
2024/01/23 11:02:30;;;;;;;1.20;1.10;;;18.90;56.40;;;;;;5040804;28;20194;-76
2024/01/23 11:04:58;;;;;;;1.63;0.90;;;18.90;56.50;;;;;;5043828;28;20210;-76
2024/01/23 11:07:56;;;;;;;1.70;1.10;;;18.90;56.50;;;;;;5047151;28;20667;-76
2024/01/23 11:10:48;;;;;;;1.40;1.05;;;18.90;56.50;;;;;;5040872;28;20239;-76
2024/01/23 11:13:38;;;;;;;1.70;1.10;;;18.90;56.50;;;;;;5040653;28;20186;-76
2024/01/23 11:16:08;;;;;;;1.48;1.02;;;18.90;56.50;;;;;;5058088;28;20199;-76
2024/01/23 11:18:35;;;;;;;1.27;0.90;;;18.90;56.50;;;;;;5058193;28;20189;-76
2024/01/23 11:21:03;;;;;;;1.42;1.05;;;18.90;56.50;;;;;;5037201;28;20205;-76
2024/01/23 11:23:34;;;;;;;1.42;1.15;;;18.90;56.50;;;;;;5053115;28;20189;-76
2024/01/23 11:26:15;;;;;;;1.55;1.00;;;18.90;56.50;;;;;;5061269;28;20229;-76
2024/01/23 11:28:50;;;;;;;1.30;1.20;;;18.90;56.50;;;;;;5061614;28;20685;-76
2024/01/23 11:31:21;;;;;;;1.67;0.90;;;18.90;56.50;;;;;;5032596;28;20185;-76
2024/01/23 11:33:49;;;;;;;1.50;1.00;;;18.90;57.10;;;;;;5040124;28;20239;-76
2024/01/23 11:36:26;;;;;;;1.10;0.95;;;18.90;56.50;;;;;;5036291;28;20215;-76
2024/01/23 11:39:00;;;;;;;1.65;1.00;;;18.90;56.50;;;;;;5068412;28;20212;-76
2024/01/23 11:41:28;;;;;;;2.47;1.30;;;18.90;56.50;;;;;;5058197;28;20193;-76
2024/01/23 11:43:55;;;;;;;1.80;1.30;;;18.90;56.50;;;;;;5040341;28;20622;-75
2024/01/23 11:46:23;;;;;;;1.02;0.90;;;18.90;56.60;;;;;;5045982;28;20270;-75
2024/01/23 11:48:51;;;;;;;1.15;1.02;;;18.90;56.50;;;;;;5061001;28;20288;-75
2024/01/23 11:51:17;;;;;;;1.45;0.90;;;18.90;56.60;;;;;;5056551;28;20173;-75
2024/01/23 11:53:45;;;;;;;2.25;1.20;;;18.90;56.60;;;;;;5039714;28;20321;-75
2024/01/23 11:56:12;;;;;;;1.10;0.85;;;18.90;56.60;;;;;;5048225;28;20197;-75
2024/01/23 11:58:40;;;;;;;1.58;1.08;;;18.90;56.60;;;;;;5060912;28;20256;-75
2024/01/23 12:01:08;;;;;;;2.15;1.17;;;18.90;56.60;;;;;;5060944;28;20198;-75
2024/01/23 12:03:35;;;;;;;0.90;0.80;;;18.90;56.60;;;;;;5046731;28;20187;-75
2024/01/23 12:06:02;;;;;;;2.53;1.10;;;18.90;56.60;;;;;;5031113;28;20211;-74
2024/01/23 12:08:28;;;;;;;1.58;0.95;;;18.90;56.70;;;;;;5049521;28;20213;-74
2024/01/23 12:10:56;;;;;;;1.75;0.70;;;18.90;56.60;;;;;;5037749;28;20199;-75
2024/01/23 12:13:23;;;;;;;1.33;0.82;;;18.90;56.60;;;;;;5057866;28;20193;-75
2024/01/23 12:15:50;;;;;;;0.63;0.63;;;18.90;56.60;;;;;;5034453;28;20269;-75
2024/01/23 12:18:23;;;;;;;1.70;0.90;;;18.90;56.60;;;;;;5069633;28;20229;-75
2024/01/23 12:20:56;;;;;;;1.00;0.88;;;18.90;56.60;;;;;;5044596;28;20183;-75
2024/01/23 12:23:27;;;;;;;1.23;0.90;;;18.90;56.60;;;;;;5035466;28;20197;-75
2024/01/23 12:25:54;;;;;;;1.40;1.15;;;18.90;56.50;;;;;;5052334;28;20210;-75
2024/01/23 12:28:20;;;;;;;1.10;1.00;;;18.90;56.50;;;;;;5030802;28;20205;-75
2024/01/23 12:30:47;;;;;;;1.38;1.08;;;18.90;56.60;;;;;;5052597;28;20256;-75
2024/01/23 12:33:17;;;;;;;1.20;1.10;;;18.90;56.50;;;;;;5037691;28;20188;-75
2024/01/23 12:35:44;;;;;;;0.88;0.80;;;18.90;56.50;;;;;;5044986;28;20191;-75
2024/01/23 12:38:14;;;;;;;2.35;1.08;;;18.90;56.50;;;;;;5044225;28;20218;-74
2024/01/23 12:40:41;;;;;;;2.03;0.95;;;18.90;56.50;;;;;;5031600;28;20248;-74
2024/01/23 12:43:09;;;;;;;1.23;1.00;;;18.90;56.60;;;;;;5043447;28;20198;-74
2024/01/23 12:45:35;;;;;;;1.77;1.00;;;18.90;56.50;;;;;;5036031;28;20269;-74
2024/01/23 12:48:01;;;;;;;0.90;0.88;;;18.90;56.50;;;;;;5040956;28;20199;-74